Startpagina
METAR-TAF:

METAR-TAF

Vliegvelden :

Pembrey, Wales

breedte: 51-43N, lengte: 004-22W, hoogte: 3 m

Actueel weer

Dit bericht is 35 minuten geleden gemaakt, om 02:50 UTC
Wind 6 kt uit het noorden
Temperatuur 15°C
Vochtigheid 100%
Druk 1019 hPa

METAR: EGOP 260250Z AUTO 35006KT //// // OVC004/// 15/15 Q1019

Tijdstip: 04:25 (03:25 UTC)


TAF: ontbreekt

Waarnemingen en weersverwachtingen van meer dan 4000 vliegvelden (METAR en TAF).

De beschikbare stations zijn de gele en rode punten op de kaart.

Ga met uw muis naar het station om de naam te zien.

Klik dan om waarnemingen en weersverwachtingen te zien.

kaart wijzigen: klik op de groene knoppen met een zwart kruis om in te zoomen, op de groene knop met een streepje om uit te zoomen of op de groene pijlen voor aangrenzende kaarten.


METAR-TAF: